createdAt,value
2023-04-28T00:03:14.435Z,7.78
2023-04-28T00:08:17.265Z,7.81
2023-04-28T00:13:19.891Z,7.81
2023-04-28T00:18:23.173Z,7.92
2023-04-28T00:23:25.965Z,7.71
2023-04-28T00:33:34.666Z,7.74
2023-04-28T00:38:37.332Z,7.69
2023-04-28T00:43:47.806Z,7.76
2023-04-28T00:48:50.723Z,7.76
2023-04-28T00:53:54.065Z,7.59
2023-04-28T00:58:56.674Z,7.27
2023-04-28T01:03:59.640Z,7.28
2023-04-28T01:09:01.844Z,7.32
2023-04-28T01:14:04.823Z,7.31
2023-04-28T01:19:19.951Z,7.25
2023-04-28T01:24:22.696Z,7.20
2023-04-28T01:29:26.005Z,6.35
2023-04-28T01:34:29.444Z,6.22
2023-04-28T01:39:32.098Z,5.68
2023-04-28T01:44:35.253Z,6.00
2023-04-28T01:49:37.866Z,5.66
2023-04-28T01:54:43.736Z,6.06
2023-04-28T01:59:46.386Z,6.04
2023-04-28T02:04:49.076Z,5.94
2023-04-28T02:09:51.697Z,6.00
2023-04-28T02:14:54.260Z,5.93
2023-04-28T02:19:57.146Z,5.80
2023-04-28T02:24:59.685Z,5.81
2023-04-28T02:30:02.992Z,5.70
2023-04-28T02:35:06.029Z,5.90
2023-04-28T02:40:08.871Z,5.97
2023-04-28T02:45:12.202Z,6.02
2023-04-28T02:50:15.512Z,6.11
2023-04-28T02:55:24.337Z,5.99
2023-04-28T03:00:28.470Z,6.08
2023-04-28T03:05:31.314Z,6.13
2023-04-28T03:10:33.903Z,6.10
2023-04-28T03:15:37.083Z,6.00
2023-04-28T03:20:39.902Z,5.98
2023-04-28T03:25:42.524Z,5.89
2023-04-28T03:30:45.369Z,5.83
2023-04-28T03:35:48.118Z,5.64
2023-04-28T03:40:50.565Z,5.74
2023-04-28T03:45:56.266Z,5.79
2023-04-28T03:51:01.302Z,5.87
2023-04-28T03:56:04.013Z,5.78
2023-04-28T04:01:06.989Z,5.86
2023-04-28T04:06:09.500Z,6.05
2023-04-28T04:11:12.188Z,6.07
2023-04-28T04:16:18.002Z,6.17
2023-04-28T04:21:20.780Z,6.21
2023-04-28T04:26:26.026Z,6.22
2023-04-28T04:31:30.174Z,6.54
2023-04-28T04:36:33.227Z,6.55
2023-04-28T04:41:36.497Z,6.41
2023-04-28T04:47:02.977Z,6.49
2023-04-28T04:52:07.392Z,6.64
2023-04-28T04:57:11.989Z,6.79
2023-04-28T05:02:32.510Z,6.87
2023-04-28T05:07:36.922Z,7.08
2023-04-28T05:12:39.830Z,7.26
2023-04-28T05:17:42.706Z,7.47
2023-04-28T05:22:45.066Z,7.61
2023-04-28T05:27:48.284Z,7.91
2023-04-28T05:32:50.699Z,7.93
2023-04-28T05:37:53.545Z,8.09
2023-04-28T05:42:56.056Z,8.14
2023-04-28T05:47:58.654Z,8.39
2023-04-28T05:53:01.317Z,8.43
2023-04-28T05:58:04.756Z,8.69
2023-04-28T06:03:11.616Z,8.61
2023-04-28T06:08:14.672Z,8.58
2023-04-28T06:13:17.429Z,8.40
2023-04-28T06:18:20.090Z,8.20
2023-04-28T06:23:22.773Z,8.32
2023-04-28T06:28:26.712Z,8.20
2023-04-28T06:33:29.429Z,8.33
2023-04-28T06:38:32.140Z,8.04
2023-04-28T06:43:35.188Z,8.33
2023-04-28T06:48:43.679Z,8.41
2023-04-28T06:53:45.810Z,8.11
2023-04-28T06:58:48.476Z,8.37
2023-04-28T07:03:51.120Z,8.42
2023-04-28T07:08:54.322Z,8.59
2023-04-28T07:13:56.597Z,8.37
2023-04-28T07:18:59.240Z,8.91
2023-04-28T07:24:02.248Z,9.18
2023-04-28T07:29:04.960Z,9.08
2023-04-28T07:34:07.510Z,9.22
2023-04-28T07:39:10.126Z,9.38
2023-04-28T07:44:12.927Z,8.58
2023-04-28T07:49:15.409Z,9.23
2023-04-28T07:54:18.460Z,9.12
2023-04-28T07:59:21.500Z,9.39
2023-04-28T08:04:24.408Z,9.76
2023-04-28T08:09:27.483Z,10.62
2023-04-28T08:14:29.781Z,11.53
2023-04-28T08:19:32.414Z,11.90
2023-04-28T08:24:34.790Z,11.71
2023-04-28T08:29:37.715Z,11.92
2023-04-28T08:34:40.349Z,12.25
2023-04-28T08:39:42.487Z,12.53
2023-04-28T08:44:46.420Z,13.76
2023-04-28T08:49:49.874Z,14.77
2023-04-28T08:54:52.984Z,16.17
2023-04-28T08:59:57.313Z,15.77
2023-04-28T09:04:59.758Z,14.99
2023-04-28T09:10:26.767Z,15.28
2023-04-28T09:15:37.772Z,15.85
2023-04-28T09:20:40.461Z,14.93
2023-04-28T09:26:03.242Z,15.59
2023-04-28T09:31:05.963Z,16.32
2023-04-28T09:36:08.880Z,16.89
2023-04-28T09:41:11.600Z,17.24
2023-04-28T09:46:29.977Z,17.06
2023-04-28T09:51:32.794Z,17.89
2023-04-28T09:56:41.917Z,16.79
2023-04-28T10:01:45.381Z,17.01
2023-04-28T10:06:48.580Z,16.01
2023-04-28T10:11:51.568Z,15.85
2023-04-28T10:16:55.161Z,16.16
2023-04-28T10:22:18.914Z,17.12
2023-04-28T10:27:22.058Z,16.68
2023-04-28T10:32:29.476Z,16.74
2023-04-28T10:38:05.971Z,17.23
2023-04-28T10:43:10.514Z,18.15
2023-04-28T10:48:13.244Z,17.08
2023-04-28T10:53:15.312Z,16.97
2023-04-28T10:58:20.589Z,18.00
2023-04-28T11:03:49.509Z,19.22
2023-04-28T11:08:52.288Z,17.18
2023-04-28T11:14:22.494Z,15.81
2023-04-28T11:19:26.885Z,15.33
2023-04-28T11:24:31.242Z,14.84
2023-04-28T11:29:43.088Z,14.87
2023-04-28T11:34:52.580Z,15.01
2023-04-28T11:39:55.450Z,16.39
2023-04-28T11:44:58.009Z,16.07
2023-04-28T11:50:01.750Z,15.21
2023-04-28T11:55:05.211Z,14.00
2023-04-28T12:00:19.766Z,14.30
2023-04-28T12:05:22.866Z,15.28
2023-04-28T12:10:25.630Z,15.49
2023-04-28T12:15:41.700Z,15.22
2023-04-28T12:20:44.442Z,15.35
2023-04-28T12:25:48.582Z,15.27
2023-04-28T12:30:51.276Z,14.92
2023-04-28T12:35:57.962Z,15.01
2023-04-28T12:41:01.207Z,14.79
2023-04-28T12:46:04.602Z,14.69
2023-04-28T12:51:07.279Z,14.87
2023-04-28T12:56:10.524Z,14.50
2023-04-28T13:01:13.683Z,14.44
2023-04-28T13:06:16.466Z,14.98
2023-04-28T13:11:22.615Z,14.55
2023-04-28T13:16:29.017Z,14.07
2023-04-28T13:21:32.165Z,14.72
2023-04-28T13:26:34.812Z,14.13
2023-04-28T13:31:37.482Z,14.45
2023-04-28T13:36:40.112Z,14.32
2023-04-28T13:41:42.973Z,14.11
2023-04-28T13:46:46.305Z,14.22
2023-04-28T13:51:48.857Z,13.95
2023-04-28T13:56:51.527Z,13.96
2023-04-28T14:01:54.087Z,13.68
2023-04-28T14:06:56.829Z,13.85
2023-04-28T14:11:59.410Z,13.90
2023-04-28T14:17:04.947Z,13.74
2023-04-28T14:22:07.705Z,13.69
2023-04-28T14:27:10.410Z,13.46
2023-04-28T14:32:13.820Z,13.45
2023-04-28T14:37:16.615Z,13.11
2023-04-28T14:42:20.313Z,13.01
2023-04-28T14:47:23.355Z,13.08
2023-04-28T14:52:30.743Z,13.06
2023-04-28T14:57:34.873Z,13.10
2023-04-28T15:02:37.928Z,13.03
2023-04-28T15:07:40.725Z,13.16
2023-04-28T15:12:43.501Z,13.02
2023-04-28T15:17:46.127Z,12.82
2023-04-28T15:22:48.930Z,12.68
2023-04-28T15:27:53.017Z,12.69
2023-04-28T15:32:55.724Z,12.79
2023-04-28T15:37:58.381Z,12.95
2023-04-28T15:43:00.882Z,12.95
2023-04-28T15:48:05.242Z,12.91
2023-04-28T15:53:08.388Z,12.85
2023-04-28T15:58:11.172Z,12.34
2023-04-28T16:03:13.887Z,12.21
2023-04-28T16:08:16.585Z,12.07
2023-04-28T16:13:19.673Z,11.93
2023-04-28T16:18:22.048Z,12.09
2023-04-28T16:23:25.015Z,12.11
2023-04-28T16:28:27.834Z,11.98
2023-04-28T16:33:30.872Z,12.09
2023-04-28T16:38:33.427Z,11.61
2023-04-28T16:43:38.357Z,11.68
2023-04-28T16:48:40.992Z,11.50
2023-04-28T16:53:43.230Z,11.55
2023-04-28T16:58:45.841Z,11.43
2023-04-28T17:03:51.168Z,11.03
2023-04-28T17:08:54.062Z,11.02
2023-04-28T17:13:57.252Z,10.79
2023-04-28T17:19:00.553Z,10.67
2023-04-28T17:24:03.146Z,10.28
2023-04-28T17:29:06.009Z,9.97
2023-04-28T17:34:08.593Z,9.73
2023-04-28T17:39:12.728Z,9.66
2023-04-28T17:44:16.947Z,9.19
2023-04-28T17:49:19.514Z,9.16
2023-04-28T17:54:22.114Z,9.17
2023-04-28T17:59:24.693Z,8.83
2023-04-28T18:04:27.316Z,8.35
2023-04-28T18:09:31.969Z,8.13
2023-04-28T18:14:34.541Z,8.00
2023-04-28T18:19:37.176Z,7.75
2023-04-28T18:24:39.824Z,7.32
2023-04-28T18:29:42.015Z,6.87
2023-04-28T18:34:44.655Z,6.68
2023-04-28T18:39:47.215Z,6.54
2023-04-28T18:44:54.398Z,6.13
2023-04-28T18:49:57.008Z,5.87
2023-04-28T18:54:59.974Z,5.96
2023-04-28T19:00:02.047Z,5.71
2023-04-28T19:05:06.025Z,5.45
2023-04-28T19:10:09.236Z,5.22
2023-04-28T19:15:11.336Z,5.09
2023-04-28T19:20:13.794Z,5.33
2023-04-28T19:25:16.875Z,5.10
2023-04-28T19:30:19.452Z,5.11
2023-04-28T19:35:21.851Z,5.03
2023-04-28T19:40:26.480Z,4.80
2023-04-28T19:45:28.944Z,4.76
2023-04-28T19:50:31.931Z,4.74
2023-04-28T19:55:34.467Z,4.62
2023-04-28T20:00:37.386Z,4.68
2023-04-28T20:05:40.217Z,4.60
2023-04-28T20:10:43.029Z,4.50
2023-04-28T20:15:45.603Z,4.24
2023-04-28T20:20:56.311Z,3.98
2023-04-28T20:25:59.647Z,3.97
2023-04-28T20:31:02.227Z,3.91
2023-04-28T20:36:05.781Z,3.61
2023-04-28T20:41:08.897Z,3.57
2023-04-28T20:46:13.709Z,3.45
2023-04-28T20:51:17.027Z,3.44
2023-04-28T20:56:19.673Z,3.62
2023-04-28T21:01:22.353Z,3.66
2023-04-28T21:06:24.679Z,3.36
2023-04-28T21:11:27.387Z,3.31
2023-04-28T21:16:33.185Z,3.21
2023-04-28T21:21:35.831Z,3.11
2023-04-28T21:26:38.532Z,3.00
2023-04-28T21:31:44.549Z,3.01
2023-04-28T21:36:47.378Z,2.92
2023-04-28T21:41:49.952Z,2.83
2023-04-28T21:46:52.845Z,2.69
2023-04-28T21:51:55.472Z,2.68
2023-04-28T21:56:58.041Z,2.60
2023-04-28T22:02:03.391Z,2.41
2023-04-28T22:07:06.721Z,2.36
2023-04-28T22:12:09.474Z,2.23
2023-04-28T22:17:12.223Z,2.56
2023-04-28T22:22:14.821Z,2.16
2023-04-28T22:27:17.857Z,1.74
2023-04-28T22:32:20.188Z,1.71
2023-04-28T22:37:22.864Z,1.47
2023-04-28T22:42:24.971Z,1.26
2023-04-28T22:47:27.515Z,1.67
2023-04-28T22:52:30.141Z,1.71
2023-04-28T22:57:32.839Z,1.96
2023-04-28T23:02:35.096Z,1.92
2023-04-28T23:07:37.658Z,2.00
2023-04-28T23:12:40.277Z,1.96
2023-04-28T23:17:43.921Z,1.85
2023-04-28T23:22:46.268Z,1.75
2023-04-28T23:27:49.338Z,1.33
2023-04-28T23:32:51.749Z,1.41
2023-04-28T23:37:54.424Z,1.32
2023-04-28T23:42:57.092Z,1.39
2023-04-28T23:47:59.917Z,1.27
2023-04-28T23:53:02.811Z,1.28
2023-04-28T23:58:05.350Z,1.56
